sensor_id;sensor_type;location;lat;lon;timestamp;P1;durP1;ratioP1;P2;durP2;ratioP2
3099;SDS011;1560;52.746;13.474;2023-02-11T00:02:21;48.78;;;27.45;;
3099;SDS011;1560;52.746;13.474;2023-02-11T00:04:49;55.33;;;27.25;;
3099;SDS011;1560;52.746;13.474;2023-02-11T00:07:19;54.85;;;27.98;;
3099;SDS011;1560;52.746;13.474;2023-02-11T00:12:24;57.85;;;27.20;;
3099;SDS011;1560;52.746;13.474;2023-02-11T00:14:52;62.55;;;30.37;;
3099;SDS011;1560;52.746;13.474;2023-02-11T00:17:22;62.17;;;29.10;;
3099;SDS011;1560;52.746;13.474;2023-02-11T00:19:59;70.25;;;30.15;;
3099;SDS011;1560;52.746;13.474;2023-02-11T00:22:28;52.08;;;26.55;;
3099;SDS011;1560;52.746;13.474;2023-02-11T00:24:57;50.43;;;23.77;;
3099;SDS011;1560;52.746;13.474;2023-02-11T00:27:26;63.20;;;31.30;;
3099;SDS011;1560;52.746;13.474;2023-02-11T00:29:55;67.15;;;29.52;;
3099;SDS011;1560;52.746;13.474;2023-02-11T00:32:25;65.95;;;29.20;;
3099;SDS011;1560;52.746;13.474;2023-02-11T00:34:54;66.85;;;29.90;;
3099;SDS011;1560;52.746;13.474;2023-02-11T00:37:23;63.85;;;28.05;;
3099;SDS011;1560;52.746;13.474;2023-02-11T00:39:51;61.77;;;30.75;;
3099;SDS011;1560;52.746;13.474;2023-02-11T00:44:57;61.02;;;29.52;;
3099;SDS011;1560;52.746;13.474;2023-02-11T00:47:26;48.92;;;28.45;;
3099;SDS011;1560;52.746;13.474;2023-02-11T00:52:31;62.75;;;30.80;;
3099;SDS011;1560;52.746;13.474;2023-02-11T00:55:01;66.77;;;31.70;;
3099;SDS011;1560;52.746;13.474;2023-02-11T00:57:30;58.65;;;29.15;;
3099;SDS011;1560;52.746;13.474;2023-02-11T01:00:10;73.87;;;30.90;;
3099;SDS011;1560;52.746;13.474;2023-02-11T01:05:17;50.63;;;27.85;;
3099;SDS011;1560;52.746;13.474;2023-02-11T01:07:46;70.22;;;32.67;;
3099;SDS011;1560;52.746;13.474;2023-02-11T01:10:16;63.92;;;30.20;;
3099;SDS011;1560;52.746;13.474;2023-02-11T01:15:21;62.73;;;29.42;;
3099;SDS011;1560;52.746;13.474;2023-02-11T01:17:50;70.40;;;30.00;;
3099;SDS011;1560;52.746;13.474;2023-02-11T01:20:20;58.65;;;30.70;;
3099;SDS011;1560;52.746;13.474;2023-02-11T01:22:50;66.87;;;31.65;;
3099;SDS011;1560;52.746;13.474;2023-02-11T01:25:28;62.43;;;31.75;;
3099;SDS011;1560;52.746;13.474;2023-02-11T01:27:57;70.87;;;31.33;;
3099;SDS011;1560;52.746;13.474;2023-02-11T01:30:34;58.50;;;32.13;;
3099;SDS011;1560;52.746;13.474;2023-02-11T01:33:03;67.00;;;32.30;;
3099;SDS011;1560;52.746;13.474;2023-02-11T01:35:32;66.80;;;32.98;;
3099;SDS011;1560;52.746;13.474;2023-02-11T01:38:01;65.72;;;32.20;;
3099;SDS011;1560;52.746;13.474;2023-02-11T01:40:38;63.92;;;29.57;;
3099;SDS011;1560;52.746;13.474;2023-02-11T01:43:08;70.37;;;32.75;;
3099;SDS011;1560;52.746;13.474;2023-02-11T01:45:47;67.65;;;30.95;;
3099;SDS011;1560;52.746;13.474;2023-02-11T01:48:21;61.02;;;30.82;;
3099;SDS011;1560;52.746;13.474;2023-02-11T01:50:54;64.90;;;32.80;;
3099;SDS011;1560;52.746;13.474;2023-02-11T01:53:25;66.55;;;31.70;;
3099;SDS011;1560;52.746;13.474;2023-02-11T01:56:13;58.00;;;30.68;;
3099;SDS011;1560;52.746;13.474;2023-02-11T01:58:53;64.03;;;30.85;;
3099;SDS011;1560;52.746;13.474;2023-02-11T02:01:23;67.42;;;32.10;;
3099;SDS011;1560;52.746;13.474;2023-02-11T02:04:01;58.75;;;31.55;;
3099;SDS011;1560;52.746;13.474;2023-02-11T02:06:33;56.15;;;29.75;;
3099;SDS011;1560;52.746;13.474;2023-02-11T02:09:12;61.80;;;30.75;;
3099;SDS011;1560;52.746;13.474;2023-02-11T02:11:43;67.22;;;29.20;;
3099;SDS011;1560;52.746;13.474;2023-02-11T02:14:12;62.90;;;31.45;;
3099;SDS011;1560;52.746;13.474;2023-02-11T02:19:36;64.50;;;31.95;;
3099;SDS011;1560;52.746;13.474;2023-02-11T02:25:30;63.13;;;33.80;;
3099;SDS011;1560;52.746;13.474;2023-02-11T02:28:28;61.48;;;30.05;;
3099;SDS011;1560;52.746;13.474;2023-02-11T02:31:27;75.10;;;33.50;;
3099;SDS011;1560;52.746;13.474;2023-02-11T02:34:03;56.48;;;30.17;;
3099;SDS011;1560;52.746;13.474;2023-02-11T02:36:42;59.77;;;30.77;;
3099;SDS011;1560;52.746;13.474;2023-02-11T02:39:14;60.23;;;31.48;;
3099;SDS011;1560;52.746;13.474;2023-02-11T02:41:53;60.43;;;31.05;;
3099;SDS011;1560;52.746;13.474;2023-02-11T02:44:23;63.58;;;31.55;;
3099;SDS011;1560;52.746;13.474;2023-02-11T02:46:52;66.30;;;33.28;;
3099;SDS011;1560;52.746;13.474;2023-02-11T02:49:21;69.15;;;32.23;;
3099;SDS011;1560;52.746;13.474;2023-02-11T02:51:54;65.37;;;32.00;;
3099;SDS011;1560;52.746;13.474;2023-02-11T02:54:43;65.35;;;32.60;;
3099;SDS011;1560;52.746;13.474;2023-02-11T02:57:19;70.95;;;32.25;;
3099;SDS011;1560;52.746;13.474;2023-02-11T03:00:03;63.10;;;31.10;;
3099;SDS011;1560;52.746;13.474;2023-02-11T03:02:45;56.10;;;29.32;;
3099;SDS011;1560;52.746;13.474;2023-02-11T03:05:20;64.45;;;32.03;;
3099;SDS011;1560;52.746;13.474;2023-02-11T03:07:51;65.37;;;31.73;;
3099;SDS011;1560;52.746;13.474;2023-02-11T03:10:32;67.17;;;30.55;;
3099;SDS011;1560;52.746;13.474;2023-02-11T03:13:02;61.15;;;30.90;;
3099;SDS011;1560;52.746;13.474;2023-02-11T03:15:40;68.62;;;32.00;;
3099;SDS011;1560;52.746;13.474;2023-02-11T03:18:06;67.37;;;31.75;;
3099;SDS011;1560;52.746;13.474;2023-02-11T03:20:46;61.28;;;31.27;;
3099;SDS011;1560;52.746;13.474;2023-02-11T03:23:18;66.17;;;32.13;;
3099;SDS011;1560;52.746;13.474;2023-02-11T03:25:58;64.45;;;30.68;;
3099;SDS011;1560;52.746;13.474;2023-02-11T03:28:30;70.52;;;34.90;;
3099;SDS011;1560;52.746;13.474;2023-02-11T03:31:05;64.50;;;33.85;;
3099;SDS011;1560;52.746;13.474;2023-02-11T03:33:37;77.05;;;33.38;;
3099;SDS011;1560;52.746;13.474;2023-02-11T03:38:46;64.30;;;34.25;;
3099;SDS011;1560;52.746;13.474;2023-02-11T03:41:19;63.70;;;32.70;;
3099;SDS011;1560;52.746;13.474;2023-02-11T03:43:50;58.35;;;29.32;;
3099;SDS011;1560;52.746;13.474;2023-02-11T03:46:22;59.58;;;31.40;;
3099;SDS011;1560;52.746;13.474;2023-02-11T03:48:55;64.17;;;33.55;;
3099;SDS011;1560;52.746;13.474;2023-02-11T03:51:26;69.50;;;33.98;;
3099;SDS011;1560;52.746;13.474;2023-02-11T03:53:59;65.37;;;32.95;;
3099;SDS011;1560;52.746;13.474;2023-02-11T03:56:32;63.85;;;33.25;;
3099;SDS011;1560;52.746;13.474;2023-02-11T03:59:03;66.82;;;32.38;;
3099;SDS011;1560;52.746;13.474;2023-02-11T04:01:32;61.88;;;32.48;;
3099;SDS011;1560;52.746;13.474;2023-02-11T04:04:01;64.75;;;32.55;;
3099;SDS011;1560;52.746;13.474;2023-02-11T04:06:31;61.75;;;32.80;;
3099;SDS011;1560;52.746;13.474;2023-02-11T04:08:59;65.95;;;32.10;;
3099;SDS011;1560;52.746;13.474;2023-02-11T04:11:28;65.87;;;33.00;;
3099;SDS011;1560;52.746;13.474;2023-02-11T04:13:57;62.43;;;31.70;;
3099;SDS011;1560;52.746;13.474;2023-02-11T04:16:26;67.67;;;32.10;;
3099;SDS011;1560;52.746;13.474;2023-02-11T04:18:56;61.77;;;31.85;;
3099;SDS011;1560;52.746;13.474;2023-02-11T04:24:01;71.45;;;34.23;;
3099;SDS011;1560;52.746;13.474;2023-02-11T04:26:31;68.28;;;33.50;;
3099;SDS011;1560;52.746;13.474;2023-02-11T04:29:00;74.35;;;34.67;;
3099;SDS011;1560;52.746;13.474;2023-02-11T04:31:29;62.62;;;33.85;;
3099;SDS011;1560;52.746;13.474;2023-02-11T04:33:57;71.20;;;35.17;;
3099;SDS011;1560;52.746;13.474;2023-02-11T04:36:26;70.75;;;34.48;;
3099;SDS011;1560;52.746;13.474;2023-02-11T04:38:55;70.25;;;34.55;;
3099;SDS011;1560;52.746;13.474;2023-02-11T04:41:24;70.50;;;35.05;;
3099;SDS011;1560;52.746;13.474;2023-02-11T04:43:53;64.17;;;33.33;;
3099;SDS011;1560;52.746;13.474;2023-02-11T04:46:21;70.85;;;36.90;;
3099;SDS011;1560;52.746;13.474;2023-02-11T04:48:50;76.33;;;34.23;;
3099;SDS011;1560;52.746;13.474;2023-02-11T04:51:19;75.72;;;34.40;;
3099;SDS011;1560;52.746;13.474;2023-02-11T04:56:24;78.95;;;38.25;;
3099;SDS011;1560;52.746;13.474;2023-02-11T04:58:53;75.00;;;35.28;;
3099;SDS011;1560;52.746;13.474;2023-02-11T05:01:22;69.75;;;35.98;;
3099;SDS011;1560;52.746;13.474;2023-02-11T05:06:27;79.77;;;36.15;;
3099;SDS011;1560;52.746;13.474;2023-02-11T05:08:56;74.80;;;35.25;;
3099;SDS011;1560;52.746;13.474;2023-02-11T05:14:01;75.78;;;36.33;;
3099;SDS011;1560;52.746;13.474;2023-02-11T05:16:31;71.80;;;36.98;;
3099;SDS011;1560;52.746;13.474;2023-02-11T05:19:00;79.65;;;38.33;;
3099;SDS011;1560;52.746;13.474;2023-02-11T05:21:29;73.90;;;37.98;;
3099;SDS011;1560;52.746;13.474;2023-02-11T05:23:58;82.12;;;41.08;;
3099;SDS011;1560;52.746;13.474;2023-02-11T05:26:27;77.95;;;38.75;;
3099;SDS011;1560;52.746;13.474;2023-02-11T05:28:55;83.95;;;37.42;;
3099;SDS011;1560;52.746;13.474;2023-02-11T05:31:24;77.50;;;39.60;;
3099;SDS011;1560;52.746;13.474;2023-02-11T05:33:53;82.08;;;39.58;;
3099;SDS011;1560;52.746;13.474;2023-02-11T05:36:22;78.52;;;39.70;;
3099;SDS011;1560;52.746;13.474;2023-02-11T05:38:51;79.70;;;38.67;;
3099;SDS011;1560;52.746;13.474;2023-02-11T05:41:19;88.90;;;37.23;;
3099;SDS011;1560;52.746;13.474;2023-02-11T05:43:48;103.75;;;41.23;;
3099;SDS011;1560;52.746;13.474;2023-02-11T05:46:17;88.85;;;39.70;;
3099;SDS011;1560;52.746;13.474;2023-02-11T05:48:46;87.60;;;39.10;;
3099;SDS011;1560;52.746;13.474;2023-02-11T05:53:52;94.45;;;42.03;;
3099;SDS011;1560;52.746;13.474;2023-02-11T05:56:21;94.37;;;44.33;;
3099;SDS011;1560;52.746;13.474;2023-02-11T05:58:50;79.35;;;37.20;;
3099;SDS011;1560;52.746;13.474;2023-02-11T06:01:18;82.88;;;38.78;;
3099;SDS011;1560;52.746;13.474;2023-02-11T06:03:47;94.22;;;40.95;;
3099;SDS011;1560;52.746;13.474;2023-02-11T06:06:17;94.55;;;41.48;;
3099;SDS011;1560;52.746;13.474;2023-02-11T06:08:46;96.00;;;41.98;;
3099;SDS011;1560;52.746;13.474;2023-02-11T06:11:15;85.62;;;42.53;;
3099;SDS011;1560;52.746;13.474;2023-02-11T06:13:44;93.55;;;43.75;;
3099;SDS011;1560;52.746;13.474;2023-02-11T06:16:13;90.38;;;44.00;;
3099;SDS011;1560;52.746;13.474;2023-02-11T06:18:42;92.47;;;42.65;;
3099;SDS011;1560;52.746;13.474;2023-02-11T06:21:10;96.05;;;43.78;;
3099;SDS011;1560;52.746;13.474;2023-02-11T06:26:17;95.77;;;44.90;;
3099;SDS011;1560;52.746;13.474;2023-02-11T06:31:24;95.53;;;42.15;;
3099;SDS011;1560;52.746;13.474;2023-02-11T06:33:54;114.40;;;45.50;;
3099;SDS011;1560;52.746;13.474;2023-02-11T06:36:31;98.37;;;42.30;;
3099;SDS011;1560;52.746;13.474;2023-02-11T06:39:00;97.30;;;43.92;;
3099;SDS011;1560;52.746;13.474;2023-02-11T06:41:29;107.30;;;45.45;;
3099;SDS011;1560;52.746;13.474;2023-02-11T06:43:58;108.47;;;46.02;;
3099;SDS011;1560;52.746;13.474;2023-02-11T06:46:27;103.45;;;47.17;;
3099;SDS011;1560;52.746;13.474;2023-02-11T06:48:56;101.87;;;45.52;;
3099;SDS011;1560;52.746;13.474;2023-02-11T06:51:25;97.12;;;42.85;;
3099;SDS011;1560;52.746;13.474;2023-02-11T06:53:54;95.30;;;44.38;;
3099;SDS011;1560;52.746;13.474;2023-02-11T06:56:32;98.52;;;42.17;;
3099;SDS011;1560;52.746;13.474;2023-02-11T07:01:38;106.35;;;47.73;;
3099;SDS011;1560;52.746;13.474;2023-02-11T07:04:07;101.45;;;42.58;;
3099;SDS011;1560;52.746;13.474;2023-02-11T07:06:36;86.60;;;42.75;;
3099;SDS011;1560;52.746;13.474;2023-02-11T07:09:05;112.72;;;45.20;;
3099;SDS011;1560;52.746;13.474;2023-02-11T07:11:34;99.97;;;47.10;;
3099;SDS011;1560;52.746;13.474;2023-02-11T07:14:04;108.45;;;46.08;;
3099;SDS011;1560;52.746;13.474;2023-02-11T07:16:34;93.87;;;45.55;;
3099;SDS011;1560;52.746;13.474;2023-02-11T07:19:12;93.15;;;42.27;;
3099;SDS011;1560;52.746;13.474;2023-02-11T07:21:41;111.52;;;45.95;;
3099;SDS011;1560;52.746;13.474;2023-02-11T07:24:11;101.47;;;43.05;;
3099;SDS011;1560;52.746;13.474;2023-02-11T07:26:41;96.75;;;45.30;;
3099;SDS011;1560;52.746;13.474;2023-02-11T07:29:16;107.30;;;45.75;;
3099;SDS011;1560;52.746;13.474;2023-02-11T07:42:18;101.97;;;41.58;;
3099;SDS011;1560;52.746;13.474;2023-02-11T07:47:23;100.00;;;45.28;;
3099;SDS011;1560;52.746;13.474;2023-02-11T07:49:52;97.90;;;46.53;;
3099;SDS011;1560;52.746;13.474;2023-02-11T07:52:21;104.00;;;46.55;;
3099;SDS011;1560;52.746;13.474;2023-02-11T07:54:58;105.45;;;45.28;;
3099;SDS011;1560;52.746;13.474;2023-02-11T07:57:27;110.65;;;45.08;;
3099;SDS011;1560;52.746;13.474;2023-02-11T07:59:56;98.50;;;41.53;;
3099;SDS011;1560;52.746;13.474;2023-02-11T08:02:25;101.35;;;44.58;;
3099;SDS011;1560;52.746;13.474;2023-02-11T08:04:54;104.35;;;47.25;;
3099;SDS011;1560;52.746;13.474;2023-02-11T08:07:23;100.92;;;43.35;;
3099;SDS011;1560;52.746;13.474;2023-02-11T08:12:30;110.42;;;46.80;;
3099;SDS011;1560;52.746;13.474;2023-02-11T08:14:59;105.22;;;44.77;;
3099;SDS011;1560;52.746;13.474;2023-02-11T08:17:28;97.02;;;42.70;;
3099;SDS011;1560;52.746;13.474;2023-02-11T08:20:06;108.92;;;45.25;;
3099;SDS011;1560;52.746;13.474;2023-02-11T08:22:36;106.92;;;43.17;;
3099;SDS011;1560;52.746;13.474;2023-02-11T08:25:05;108.40;;;47.17;;
3099;SDS011;1560;52.746;13.474;2023-02-11T08:27:34;100.10;;;42.03;;
3099;SDS011;1560;52.746;13.474;2023-02-11T08:30:04;108.95;;;42.05;;
3099;SDS011;1560;52.746;13.474;2023-02-11T08:35:10;98.52;;;43.13;;
3099;SDS011;1560;52.746;13.474;2023-02-11T08:37:40;98.37;;;44.70;;
3099;SDS011;1560;52.746;13.474;2023-02-11T08:42:46;93.37;;;42.98;;
3099;SDS011;1560;52.746;13.474;2023-02-11T08:45:15;90.87;;;41.92;;
3099;SDS011;1560;52.746;13.474;2023-02-11T08:50:21;91.12;;;39.42;;
3099;SDS011;1560;52.746;13.474;2023-02-11T08:52:49;94.97;;;39.63;;
3099;SDS011;1560;52.746;13.474;2023-02-11T08:55:18;89.87;;;42.05;;
3099;SDS011;1560;52.746;13.474;2023-02-11T08:57:47;91.85;;;42.20;;
3099;SDS011;1560;52.746;13.474;2023-02-11T09:00:17;98.70;;;42.30;;
3099;SDS011;1560;52.746;13.474;2023-02-11T09:02:47;92.30;;;42.08;;
3099;SDS011;1560;52.746;13.474;2023-02-11T09:05:16;95.75;;;42.45;;
3099;SDS011;1560;52.746;13.474;2023-02-11T09:07:45;89.80;;;43.15;;
3099;SDS011;1560;52.746;13.474;2023-02-11T09:10:14;89.20;;;41.05;;
3099;SDS011;1560;52.746;13.474;2023-02-11T09:12:43;97.15;;;43.80;;
3099;SDS011;1560;52.746;13.474;2023-02-11T09:17:48;84.50;;;40.88;;
3099;SDS011;1560;52.746;13.474;2023-02-11T09:20:17;93.50;;;41.65;;
3099;SDS011;1560;52.746;13.474;2023-02-11T09:22:47;95.67;;;41.55;;
3099;SDS011;1560;52.746;13.474;2023-02-11T09:25:16;95.03;;;41.80;;
3099;SDS011;1560;52.746;13.474;2023-02-11T09:27:54;96.87;;;42.58;;
3099;SDS011;1560;52.746;13.474;2023-02-11T09:30:22;85.62;;;38.60;;
3099;SDS011;1560;52.746;13.474;2023-02-11T09:35:28;76.33;;;38.33;;
3099;SDS011;1560;52.746;13.474;2023-02-11T09:37:56;82.72;;;37.90;;
3099;SDS011;1560;52.746;13.474;2023-02-11T09:43:03;73.92;;;38.00;;
3099;SDS011;1560;52.746;13.474;2023-02-11T09:45:34;79.97;;;36.05;;
3099;SDS011;1560;52.746;13.474;2023-02-11T09:48:04;79.58;;;39.48;;
3099;SDS011;1560;52.746;13.474;2023-02-11T09:50:38;73.40;;;36.05;;
3099;SDS011;1560;52.746;13.474;2023-02-11T09:53:09;81.45;;;36.45;;
3099;SDS011;1560;52.746;13.474;2023-02-11T09:55:42;79.70;;;35.85;;
3099;SDS011;1560;52.746;13.474;2023-02-11T10:00:50;81.12;;;38.95;;
3099;SDS011;1560;52.746;13.474;2023-02-11T10:06:38;74.15;;;35.58;;
3099;SDS011;1560;52.746;13.474;2023-02-11T10:09:12;76.35;;;34.70;;
3099;SDS011;1560;52.746;13.474;2023-02-11T10:14:40;76.75;;;35.10;;
3099;SDS011;1560;52.746;13.474;2023-02-11T10:17:17;76.42;;;34.98;;
3099;SDS011;1560;52.746;13.474;2023-02-11T10:20:02;77.80;;;35.20;;
3099;SDS011;1560;52.746;13.474;2023-02-11T10:22:36;79.82;;;33.02;;
3099;SDS011;1560;52.746;13.474;2023-02-11T10:25:14;67.97;;;32.93;;
3099;SDS011;1560;52.746;13.474;2023-02-11T10:27:46;87.25;;;35.45;;
3099;SDS011;1560;52.746;13.474;2023-02-11T10:30:19;81.15;;;36.35;;
3099;SDS011;1560;52.746;13.474;2023-02-11T10:32:52;74.77;;;34.92;;
3099;SDS011;1560;52.746;13.474;2023-02-11T10:37:59;68.87;;;33.75;;
3099;SDS011;1560;52.746;13.474;2023-02-11T10:43:06;72.97;;;33.63;;
3099;SDS011;1560;52.746;13.474;2023-02-11T10:45:39;75.00;;;33.75;;
3099;SDS011;1560;52.746;13.474;2023-02-11T10:51:13;70.22;;;34.48;;
3099;SDS011;1560;52.746;13.474;2023-02-11T10:53:44;69.87;;;33.98;;
3099;SDS011;1560;52.746;13.474;2023-02-11T10:56:20;79.58;;;33.70;;
3099;SDS011;1560;52.746;13.474;2023-02-11T10:58:54;62.80;;;31.73;;
3099;SDS011;1560;52.746;13.474;2023-02-11T11:01:38;63.75;;;31.48;;
3099;SDS011;1560;52.746;13.474;2023-02-11T11:04:25;62.10;;;32.30;;
3099;SDS011;1560;52.746;13.474;2023-02-11T11:07:10;66.85;;;31.35;;
3099;SDS011;1560;52.746;13.474;2023-02-11T11:09:43;68.17;;;31.30;;
3099;SDS011;1560;52.746;13.474;2023-02-11T11:12:24;58.75;;;30.20;;
3099;SDS011;1560;52.746;13.474;2023-02-11T11:14:56;61.00;;;31.42;;
3099;SDS011;1560;52.746;13.474;2023-02-11T11:17:26;62.38;;;30.30;;
3099;SDS011;1560;52.746;13.474;2023-02-11T11:20:14;70.87;;;31.73;;
3099;SDS011;1560;52.746;13.474;2023-02-11T11:22:50;65.50;;;30.20;;
3099;SDS011;1560;52.746;13.474;2023-02-11T11:25:22;72.85;;;31.90;;
3099;SDS011;1560;52.746;13.474;2023-02-11T11:27:53;69.95;;;32.98;;
3099;SDS011;1560;52.746;13.474;2023-02-11T11:30:26;51.65;;;28.90;;
3099;SDS011;1560;52.746;13.474;2023-02-11T11:32:57;56.35;;;29.32;;
3099;SDS011;1560;52.746;13.474;2023-02-11T11:38:03;67.15;;;29.67;;
3099;SDS011;1560;52.746;13.474;2023-02-11T11:43:15;59.80;;;29.37;;
3099;SDS011;1560;52.746;13.474;2023-02-11T11:45:52;57.13;;;28.77;;
3099;SDS011;1560;52.746;13.474;2023-02-11T11:48:22;65.78;;;30.48;;
3099;SDS011;1560;52.746;13.474;2023-02-11T11:50:54;52.95;;;27.65;;
3099;SDS011;1560;52.746;13.474;2023-02-11T11:56:04;57.65;;;26.55;;
3099;SDS011;1560;52.746;13.474;2023-02-11T12:01:17;49.88;;;27.45;;
3099;SDS011;1560;52.746;13.474;2023-02-11T12:07:10;46.60;;;24.82;;
3099;SDS011;1560;52.746;13.474;2023-02-11T12:09:47;52.35;;;26.85;;
3099;SDS011;1560;52.746;13.474;2023-02-11T12:15:02;48.13;;;24.92;;
3099;SDS011;1560;52.746;13.474;2023-02-11T12:17:38;43.38;;;23.70;;
3099;SDS011;1560;52.746;13.474;2023-02-11T12:20:23;49.95;;;26.23;;
3099;SDS011;1560;52.746;13.474;2023-02-11T12:23:00;48.38;;;24.82;;
3099;SDS011;1560;52.746;13.474;2023-02-11T12:28:16;47.55;;;23.62;;
3099;SDS011;1560;52.746;13.474;2023-02-11T12:30:55;41.68;;;23.50;;
3099;SDS011;1560;52.746;13.474;2023-02-11T12:33:38;43.60;;;24.60;;
3099;SDS011;1560;52.746;13.474;2023-02-11T12:36:14;44.80;;;25.00;;
3099;SDS011;1560;52.746;13.474;2023-02-11T12:38:55;48.63;;;22.40;;
3099;SDS011;1560;52.746;13.474;2023-02-11T12:41:42;45.78;;;23.70;;
3099;SDS011;1560;52.746;13.474;2023-02-11T12:44:35;48.98;;;26.55;;
3099;SDS011;1560;52.746;13.474;2023-02-11T12:49:48;40.03;;;22.07;;
3099;SDS011;1560;52.746;13.474;2023-02-11T12:55:08;39.95;;;23.15;;
3099;SDS011;1560;52.746;13.474;2023-02-11T12:57:39;38.92;;;22.75;;
3099;SDS011;1560;52.746;13.474;2023-02-11T13:00:12;43.55;;;23.12;;
3099;SDS011;1560;52.746;13.474;2023-02-11T13:02:55;34.55;;;21.25;;
3099;SDS011;1560;52.746;13.474;2023-02-11T13:05:26;47.58;;;23.20;;
3099;SDS011;1560;52.746;13.474;2023-02-11T13:08:00;48.35;;;21.85;;
3099;SDS011;1560;52.746;13.474;2023-02-11T13:10:31;40.05;;;21.48;;
3099;SDS011;1560;52.746;13.474;2023-02-11T13:13:04;42.38;;;20.72;;
3099;SDS011;1560;52.746;13.474;2023-02-11T13:15:45;41.77;;;19.67;;
3099;SDS011;1560;52.746;13.474;2023-02-11T13:20:57;44.13;;;21.90;;
3099;SDS011;1560;52.746;13.474;2023-02-11T13:23:29;41.28;;;20.65;;
3099;SDS011;1560;52.746;13.474;2023-02-11T13:26:04;46.55;;;21.07;;
3099;SDS011;1560;52.746;13.474;2023-02-11T13:28:37;33.50;;;19.52;;
3099;SDS011;1560;52.746;13.474;2023-02-11T13:31:09;37.67;;;20.17;;
3099;SDS011;1560;52.746;13.474;2023-02-11T13:33:39;32.45;;;18.10;;
3099;SDS011;1560;52.746;13.474;2023-02-11T13:36:13;38.28;;;19.50;;
3099;SDS011;1560;52.746;13.474;2023-02-11T13:38:51;38.35;;;20.70;;
3099;SDS011;1560;52.746;13.474;2023-02-11T13:41:23;40.33;;;20.90;;
3099;SDS011;1560;52.746;13.474;2023-02-11T13:43:59;41.48;;;21.00;;
3099;SDS011;1560;52.746;13.474;2023-02-11T13:49:24;38.28;;;20.20;;
3099;SDS011;1560;52.746;13.474;2023-02-11T13:51:56;30.77;;;17.60;;
3099;SDS011;1560;52.746;13.474;2023-02-11T13:57:21;32.85;;;17.52;;
3099;SDS011;1560;52.746;13.474;2023-02-11T14:00:06;41.90;;;22.58;;
3099;SDS011;1560;52.746;13.474;2023-02-11T14:06:12;38.20;;;21.42;;
3099;SDS011;1560;52.746;13.474;2023-02-11T14:09:09;34.20;;;19.42;;
3099;SDS011;1560;52.746;13.474;2023-02-11T14:14:58;31.00;;;18.12;;
3099;SDS011;1560;52.746;13.474;2023-02-11T14:17:30;40.43;;;19.75;;
3099;SDS011;1560;52.746;13.474;2023-02-11T14:20:00;36.70;;;19.40;;
3099;SDS011;1560;52.746;13.474;2023-02-11T14:22:39;41.98;;;21.70;;
3099;SDS011;1560;52.746;13.474;2023-02-11T14:25:18;34.25;;;19.37;;
3099;SDS011;1560;52.746;13.474;2023-02-11T14:27:50;39.73;;;19.30;;
3099;SDS011;1560;52.746;13.474;2023-02-11T14:33:20;37.42;;;19.52;;
3099;SDS011;1560;52.746;13.474;2023-02-11T14:36:01;31.30;;;18.67;;
3099;SDS011;1560;52.746;13.474;2023-02-11T14:38:38;29.65;;;18.05;;
3099;SDS011;1560;52.746;13.474;2023-02-11T14:43:46;33.75;;;18.82;;
3099;SDS011;1560;52.746;13.474;2023-02-11T14:46:18;40.15;;;18.10;;
3099;SDS011;1560;52.746;13.474;2023-02-11T14:48:57;32.17;;;17.62;;
3099;SDS011;1560;52.746;13.474;2023-02-11T14:51:37;36.98;;;20.57;;
3099;SDS011;1560;52.746;13.474;2023-02-11T14:54:09;32.10;;;17.20;;
3099;SDS011;1560;52.746;13.474;2023-02-11T14:56:40;28.55;;;16.57;;
3099;SDS011;1560;52.746;13.474;2023-02-11T14:59:18;32.58;;;17.50;;
3099;SDS011;1560;52.746;13.474;2023-02-11T15:04:25;28.15;;;15.58;;
3099;SDS011;1560;52.746;13.474;2023-02-11T15:06:56;27.58;;;15.10;;
3099;SDS011;1560;52.746;13.474;2023-02-11T15:09:30;44.18;;;24.40;;
3099;SDS011;1560;52.746;13.474;2023-02-11T15:11:59;30.48;;;18.98;;
3099;SDS011;1560;52.746;13.474;2023-02-11T15:17:06;26.95;;;15.98;;
3099;SDS011;1560;52.746;13.474;2023-02-11T15:22:17;30.15;;;16.37;;
3099;SDS011;1560;52.746;13.474;2023-02-11T15:24:57;27.48;;;18.25;;
3099;SDS011;1560;52.746;13.474;2023-02-11T15:27:26;31.85;;;19.92;;
3099;SDS011;1560;52.746;13.474;2023-02-11T15:29:57;27.20;;;13.88;;
3099;SDS011;1560;52.746;13.474;2023-02-11T15:32:26;22.00;;;13.50;;
3099;SDS011;1560;52.746;13.474;2023-02-11T15:34:54;23.45;;;14.30;;
3099;SDS011;1560;52.746;13.474;2023-02-11T15:37:25;23.98;;;14.53;;
3099;SDS011;1560;52.746;13.474;2023-02-11T15:40:07;23.40;;;14.25;;
3099;SDS011;1560;52.746;13.474;2023-02-11T15:42:38;26.85;;;16.60;;
3099;SDS011;1560;52.746;13.474;2023-02-11T15:45:16;22.98;;;13.48;;
3099;SDS011;1560;52.746;13.474;2023-02-11T15:47:51;24.30;;;13.83;;
3099;SDS011;1560;52.746;13.474;2023-02-11T15:50:23;22.58;;;15.20;;
3099;SDS011;1560;52.746;13.474;2023-02-11T15:52:53;24.25;;;17.10;;
3099;SDS011;1560;52.746;13.474;2023-02-11T15:55:23;91.02;;;63.00;;
3099;SDS011;1560;52.746;13.474;2023-02-11T15:57:53;27.02;;;20.15;;
3099;SDS011;1560;52.746;13.474;2023-02-11T16:00:26;24.75;;;15.40;;
3099;SDS011;1560;52.746;13.474;2023-02-11T16:02:55;23.38;;;14.00;;
3099;SDS011;1560;52.746;13.474;2023-02-11T16:05:26;21.30;;;13.48;;
3099;SDS011;1560;52.746;13.474;2023-02-11T16:07:57;21.20;;;13.20;;
3099;SDS011;1560;52.746;13.474;2023-02-11T16:23:51;18.60;;;10.70;;
3099;SDS011;1560;52.746;13.474;2023-02-11T16:26:29;18.52;;;10.45;;
3099;SDS011;1560;52.746;13.474;2023-02-11T16:29:13;18.48;;;12.93;;
3099;SDS011;1560;52.746;13.474;2023-02-11T16:31:50;15.98;;;10.80;;
3099;SDS011;1560;52.746;13.474;2023-02-11T16:34:26;21.68;;;15.83;;
3099;SDS011;1560;52.746;13.474;2023-02-11T16:36:56;17.60;;;13.28;;
3099;SDS011;1560;52.746;13.474;2023-02-11T16:39:33;14.80;;;11.25;;
3099;SDS011;1560;52.746;13.474;2023-02-11T17:00:14;22.07;;;11.60;;
3099;SDS011;1560;52.746;13.474;2023-02-11T17:23:18;19.65;;;13.00;;
3099;SDS011;1560;52.746;13.474;2023-02-11T17:54:10;21.70;;;12.68;;
3099;SDS011;1560;52.746;13.474;2023-02-11T17:59:17;22.15;;;18.42;;
3099;SDS011;1560;52.746;13.474;2023-02-11T18:01:47;18.73;;;14.50;;
3099;SDS011;1560;52.746;13.474;2023-02-11T18:04:16;20.00;;;16.02;;
3099;SDS011;1560;52.746;13.474;2023-02-11T18:09:22;18.32;;;12.98;;
3099;SDS011;1560;52.746;13.474;2023-02-11T18:11:52;24.23;;;18.48;;
3099;SDS011;1560;52.746;13.474;2023-02-11T18:14:21;23.95;;;15.60;;
3099;SDS011;1560;52.746;13.474;2023-02-11T18:16:50;19.17;;;14.20;;
3099;SDS011;1560;52.746;13.474;2023-02-11T18:19:19;20.75;;;11.38;;
3099;SDS011;1560;52.746;13.474;2023-02-11T18:21:48;18.95;;;10.80;;
3099;SDS011;1560;52.746;13.474;2023-02-11T18:24:17;15.72;;;10.85;;
3099;SDS011;1560;52.746;13.474;2023-02-11T18:26:46;17.20;;;10.63;;
3099;SDS011;1560;52.746;13.474;2023-02-11T18:29:15;16.07;;;10.00;;
3099;SDS011;1560;52.746;13.474;2023-02-11T18:31:44;19.25;;;9.53;;
3099;SDS011;1560;52.746;13.474;2023-02-11T18:36:49;13.60;;;9.30;;
3099;SDS011;1560;52.746;13.474;2023-02-11T18:39:18;16.20;;;11.33;;
3099;SDS011;1560;52.746;13.474;2023-02-11T18:41:49;18.25;;;12.43;;
3099;SDS011;1560;52.746;13.474;2023-02-11T18:44:20;17.85;;;11.90;;
3099;SDS011;1560;52.746;13.474;2023-02-11T18:46:50;19.37;;;12.07;;
3099;SDS011;1560;52.746;13.474;2023-02-11T18:49:28;18.77;;;11.55;;
3099;SDS011;1560;52.746;13.474;2023-02-11T18:51:58;17.25;;;10.43;;
3099;SDS011;1560;52.746;13.474;2023-02-11T18:54:27;17.10;;;10.95;;
3099;SDS011;1560;52.746;13.474;2023-02-11T18:56:56;20.17;;;12.88;;